Time;durP1;ratioP1;P1;durP2;ratioP2;P2;SDS_P1;SDS_P2;PMS_P1;PMS_P2;Temp;Humidity;BMP_temperature;BMP_pressure;BME280_temperature;BME280_humidity;BME280_pressure;Samples;Min_cycle;Max_cycle;Signal;HPM_P1;HPM_P2
2023/05/27 00:01:23;;;;;;;12.57;5.07;;;;;;;;;;10361787;28;20032;-84
2023/05/27 00:06:24;;;;;;;14.10;5.25;;;;;;;;;;10352462;28;20078;-80
2023/05/27 00:11:25;;;;;;;20.90;5.38;;;;;;;;;;10352836;28;20075;-80
2023/05/27 00:16:26;;;;;;;18.15;5.65;;;;;;;;;;10339285;28;20042;-81
2023/05/27 00:21:27;;;;;;;17.45;5.22;;;;;;;;;;10362939;28;20559;-81
2023/05/27 00:26:29;;;;;;;14.60;5.45;;;;;;;;;;10355047;28;20038;-80
2023/05/27 00:31:30;;;;;;;14.63;5.43;;;;;;;;;;10354441;28;20054;-81
2023/05/27 00:36:33;;;;;;;14.55;5.80;;;;;;;;;;10428478;28;20558;-80
2023/05/27 00:41:35;;;;;;;16.92;5.78;;;;;;;;;;10353999;28;20416;-81
2023/05/27 00:46:36;;;;;;;15.80;6.03;;;;;;;;;;10350341;28;20030;-80
2023/05/27 00:51:37;;;;;;;16.52;5.78;;;;;;;;;;10364908;28;20132;-85
2023/05/27 00:56:40;;;;;;;23.52;6.25;;;;;;;;;;10351952;28;20115;-81
2023/05/27 01:01:43;;;;;;;16.25;5.60;;;;;;;;;;10390519;28;20041;-80
2023/05/27 01:07:04;;;;;;;15.80;5.40;;;;;;;;;;10362684;28;20539;-82
2023/05/27 01:12:28;;;;;;;15.18;5.75;;;;;;;;;;10343208;28;20076;-80
2023/05/27 01:17:31;;;;;;;14.35;5.85;;;;;;;;;;10355220;28;20036;-81
2023/05/27 01:22:32;;;;;;;18.33;6.43;;;;;;;;;;10354933;28;20069;-81
2023/05/27 01:27:33;;;;;;;21.00;6.47;;;;;;;;;;10352633;28;20030;-83
2023/05/27 01:32:39;;;;;;;19.02;6.07;;;;;;;;;;10361493;28;20071;-81
2023/05/27 01:37:42;;;;;;;16.45;6.30;;;;;;;;;;10360026;28;20041;-80
2023/05/27 01:42:44;;;;;;;17.25;6.57;;;;;;;;;;10353075;28;20057;-83
2023/05/27 01:47:45;;;;;;;14.70;5.93;;;;;;;;;;10350842;28;20037;-81
2023/05/27 01:52:46;;;;;;;16.88;5.78;;;;;;;;;;10362497;28;20026;-81
2023/05/27 01:57:47;;;;;;;14.00;6.00;;;;;;;;;;10359889;28;20030;-82
2023/05/27 02:02:48;;;;;;;18.83;6.45;;;;;;;;;;10350674;28;20076;-85
2023/05/27 02:07:49;;;;;;;16.20;6.50;;;;;;;;;;10358503;28;20635;-83
2023/05/27 02:12:50;;;;;;;20.55;6.45;;;;;;;;;;10356936;28;20125;-80
2023/05/27 02:17:54;;;;;;;18.63;6.10;;;;;;;;;;10358794;28;20030;-81
2023/05/27 02:22:56;;;;;;;18.33;6.13;;;;;;;;;;10340330;28;20048;-83
2023/05/27 02:27:57;;;;;;;14.57;5.53;;;;;;;;;;10351937;28;20034;-86
2023/05/27 02:33:00;;;;;;;15.10;5.67;;;;;;;;;;10357593;28;20830;-81
2023/05/27 02:38:04;;;;;;;17.93;6.63;;;;;;;;;;10370630;28;20037;-83
2023/05/27 02:43:05;;;;;;;19.10;6.30;;;;;;;;;;10357998;28;20046;-81
2023/05/27 02:48:07;;;;;;;15.90;5.57;;;;;;;;;;10357690;28;20057;-80
2023/05/27 02:53:07;;;;;;;18.40;6.47;;;;;;;;;;10359929;28;20099;-81
2023/05/27 02:58:09;;;;;;;19.23;6.97;;;;;;;;;;10355829;28;20026;-81
2023/05/27 03:03:11;;;;;;;17.03;6.93;;;;;;;;;;10346491;28;20123;-81
2023/05/27 03:08:12;;;;;;;17.83;5.93;;;;;;;;;;10357127;28;20044;-81
2023/05/27 03:13:14;;;;;;;20.40;6.40;;;;;;;;;;10352762;28;20042;-82
2023/05/27 03:18:14;;;;;;;15.10;5.93;;;;;;;;;;10356570;28;20033;-85
2023/05/27 03:23:17;;;;;;;21.23;6.50;;;;;;;;;;10353093;28;20050;-81
2023/05/27 03:28:18;;;;;;;14.50;5.27;;;;;;;;;;10336069;28;20046;-81
2023/05/27 03:33:19;;;;;;;20.60;5.40;;;;;;;;;;10354865;28;20057;-79
2023/05/27 03:38:20;;;;;;;15.93;6.50;;;;;;;;;;10351114;28;20041;-80
2023/05/27 03:43:21;;;;;;;19.50;5.73;;;;;;;;;;10343077;28;20465;-83
2023/05/27 03:48:22;;;;;;;25.80;6.20;;;;;;;;;;10348558;28;20114;-80
2023/05/27 03:53:23;;;;;;;19.60;5.97;;;;;;;;;;10363426;28;20034;-81
2023/05/27 03:58:24;;;;;;;18.60;6.17;;;;;;;;;;10354025;28;20044;-81
2023/05/27 04:03:26;;;;;;;14.70;5.10;;;;;;;;;;10453733;28;20092;-86
2023/05/27 04:08:27;;;;;;;23.37;6.30;;;;;;;;;;10356120;28;20070;-80
2023/05/27 04:13:28;;;;;;;18.17;5.87;;;;;;;;;;10346286;28;20033;-80
2023/05/27 04:18:29;;;;;;;21.33;5.67;;;;;;;;;;10350933;28;20030;-81
2023/05/27 04:23:30;;;;;;;16.20;5.67;;;;;;;;;;10370175;28;20034;-80
2023/05/27 04:28:38;;;;;;;21.43;5.93;;;;;;;;;;10366067;28;20500;-81
2023/05/27 04:33:40;;;;;;;20.17;5.57;;;;;;;;;;10356227;28;20134;-81
2023/05/27 04:38:44;;;;;;;15.93;5.53;;;;;;;;;;10357560;28;20036;-80
2023/05/27 04:43:46;;;;;;;22.20;6.07;;;;;;;;;;10351162;28;20110;-81
2023/05/27 04:48:47;;;;;;;18.27;5.00;;;;;;;;;;10363063;28;20030;-81
2023/05/27 04:53:48;;;;;;;19.77;4.97;;;;;;;;;;10355485;28;20030;-83
2023/05/27 04:58:50;;;;;;;19.40;6.00;;;;;;;;;;10343649;28;20038;-80
2023/05/27 05:09:11;;;;;;;18.95;5.20;;;;;;;;;;10342964;28;20071;-84
2023/05/27 05:14:12;;;;;;;14.38;4.57;;;;;;;;;;10355114;28;20022;-81
2023/05/27 05:19:13;;;;;;;14.98;5.15;;;;;;;;;;10357531;28;20508;-83
2023/05/27 05:24:14;;;;;;;12.20;4.70;;;;;;;;;;10369356;28;20026;-80
2023/05/27 05:29:15;;;;;;;20.10;5.28;;;;;;;;;;10361508;28;20042;-80
2023/05/27 05:34:16;;;;;;;15.52;4.93;;;;;;;;;;10373470;28;20126;-82
2023/05/27 05:39:17;;;;;;;15.85;5.30;;;;;;;;;;10355240;28;20114;-82
2023/05/27 05:44:18;;;;;;;14.27;4.40;;;;;;;;;;10358051;28;20026;-80
2023/05/27 05:49:21;;;;;;;23.17;6.32;;;;;;;;;;10372238;28;20062;-84
2023/05/27 05:54:22;;;;;;;18.60;5.38;;;;;;;;;;10362394;28;20397;-80
2023/05/27 05:59:23;;;;;;;20.02;4.97;;;;;;;;;;10361932;28;20268;-85
2023/05/27 06:04:24;;;;;;;16.48;5.28;;;;;;;;;;10344791;28;20373;-81
2023/05/27 06:09:25;;;;;;;15.05;5.15;;;;;;;;;;10373266;28;20521;-81
2023/05/27 06:14:26;;;;;;;16.55;4.75;;;;;;;;;;10351142;28;20030;-80
2023/05/27 06:19:27;;;;;;;20.52;5.68;;;;;;;;;;10318525;28;20120;-82
2023/05/27 06:24:28;;;;;;;14.30;5.20;;;;;;;;;;10341610;28;20026;-81
2023/05/27 06:29:30;;;;;;;18.17;6.05;;;;;;;;;;10319649;28;20178;-79
2023/05/27 06:34:31;;;;;;;13.18;3.90;;;;;;;;;;10361641;28;20048;-81
2023/05/27 06:39:32;;;;;;;13.32;4.45;;;;;;;;;;10375501;28;20045;-80
2023/05/27 06:44:33;;;;;;;15.32;4.80;;;;;;;;;;10348211;28;20034;-80
2023/05/27 06:49:34;;;;;;;16.65;4.65;;;;;;;;;;10357293;28;20057;-83
2023/05/27 06:54:36;;;;;;;16.17;5.10;;;;;;;;;;10357601;28;20117;-84
2023/05/27 06:59:37;;;;;;;14.45;4.50;;;;;;;;;;10367469;28;20078;-80
2023/05/27 07:04:38;;;;;;;15.52;4.75;;;;;;;;;;10347036;28;20037;-81
2023/05/27 07:09:39;;;;;;;14.90;4.55;;;;;;;;;;10356006;28;20038;-81
2023/05/27 07:14:40;;;;;;;16.85;4.10;;;;;;;;;;10357505;28;20492;-80
2023/05/27 07:19:41;;;;;;;16.40;4.55;;;;;;;;;;10366339;28;20053;-83
2023/05/27 07:24:42;;;;;;;12.63;4.60;;;;;;;;;;10355970;28;20076;-80
2023/05/27 07:29:43;;;;;;;12.93;4.25;;;;;;;;;;10352530;28;20664;-81
2023/05/27 07:34:44;;;;;;;9.63;4.22;;;;;;;;;;10342126;28;20548;-82
2023/05/27 07:39:45;;;;;;;13.43;4.07;;;;;;;;;;10425331;28;20045;-79
2023/05/27 07:44:46;;;;;;;13.13;4.70;;;;;;;;;;10349558;28;20112;-78
2023/05/27 07:49:47;;;;;;;17.65;4.07;;;;;;;;;;10356790;28;20117;-81
2023/05/27 07:54:48;;;;;;;10.55;4.05;;;;;;;;;;10363109;28;20060;-79
2023/05/27 07:59:49;;;;;;;13.95;3.75;;;;;;;;;;10350317;28;20052;-79
2023/05/27 08:04:51;;;;;;;13.80;3.72;;;;;;;;;;10355880;28;20065;-79
2023/05/27 08:09:52;;;;;;;10.45;3.78;;;;;;;;;;10354517;28;20472;-85
2023/05/27 08:14:53;;;;;;;9.52;3.65;;;;;;;;;;10349034;28;20427;-82
2023/05/27 08:19:54;;;;;;;15.05;3.58;;;;;;;;;;10358558;28;20045;-81
2023/05/27 08:24:55;;;;;;;10.13;3.65;;;;;;;;;;10351900;28;20030;-81
2023/05/27 08:29:56;;;;;;;14.77;4.28;;;;;;;;;;10349190;28;20046;-82
2023/05/27 08:34:57;;;;;;;9.73;3.45;;;;;;;;;;10354862;28;20394;-80
2023/05/27 08:39:58;;;;;;;10.95;3.65;;;;;;;;;;10357835;28;20439;-83
2023/05/27 08:44:59;;;;;;;10.50;3.47;;;;;;;;;;10347394;28;20495;-81
2023/05/27 08:50:01;;;;;;;9.70;3.05;;;;;;;;;;10348220;28;20087;-81
2023/05/27 08:55:03;;;;;;;9.95;3.05;;;;;;;;;;10349865;28;20034;-82
2023/05/27 09:00:11;;;;;;;10.57;3.58;;;;;;;;;;10353516;28;20129;-83
2023/05/27 09:05:13;;;;;;;11.50;3.67;;;;;;;;;;10342661;28;20070;-83
2023/05/27 09:10:14;;;;;;;14.38;4.57;;;;;;;;;;10357467;28;20038;-85
2023/05/27 09:15:17;;;;;;;10.45;3.88;;;;;;;;;;10341693;28;20034;-82
2023/05/27 09:20:26;;;;;;;12.23;3.47;;;;;;;;;;10342391;28;20065;-84
2023/05/27 09:25:28;;;;;;;9.27;3.35;;;;;;;;;;10346388;28;20032;-80
2023/05/27 09:30:29;;;;;;;10.63;2.80;;;;;;;;;;10351920;28;20104;-79
2023/05/27 09:35:30;;;;;;;9.60;3.33;;;;;;;;;;10346023;28;20026;-79
2023/05/27 09:40:32;;;;;;;8.05;3.20;;;;;;;;;;10352819;28;20071;-78
2023/05/27 09:45:34;;;;;;;9.57;2.92;;;;;;;;;;10340767;28;20034;-78
2023/05/27 09:50:35;;;;;;;10.02;3.15;;;;;;;;;;10352261;28;20370;-78
2023/05/27 09:55:36;;;;;;;9.00;2.70;;;;;;;;;;10360109;28;20465;-78
2023/05/27 10:00:40;;;;;;;8.82;3.15;;;;;;;;;;10347126;28;20070;-78
2023/05/27 10:05:42;;;;;;;10.65;3.42;;;;;;;;;;10346891;28;20033;-78
2023/05/27 10:10:44;;;;;;;12.65;4.00;;;;;;;;;;10371119;28;20076;-80
2023/05/27 10:15:49;;;;;;;13.35;3.92;;;;;;;;;;10333191;28;20037;-77
2023/05/27 10:20:51;;;;;;;8.15;3.03;;;;;;;;;;10336509;28;20043;-78
2023/05/27 10:25:53;;;;;;;6.63;2.25;;;;;;;;;;10347909;28;20026;-79
2023/05/27 10:31:03;;;;;;;12.60;3.33;;;;;;;;;;10356097;28;20061;-79
2023/05/27 10:36:05;;;;;;;6.82;2.80;;;;;;;;;;10356848;28;20034;-80
2023/05/27 10:41:07;;;;;;;8.48;3.58;;;;;;;;;;10348990;28;20447;-80
2023/05/27 10:46:08;;;;;;;7.50;3.35;;;;;;;;;;10352133;28;20497;-80
2023/05/27 10:51:10;;;;;;;7.63;3.08;;;;;;;;;;10360669;28;20548;-81
2023/05/27 10:56:11;;;;;;;7.78;3.20;;;;;;;;;;10377814;28;20166;-82
2023/05/27 11:01:14;;;;;;;8.82;3.78;;;;;;;;;;10334344;28;20556;-80
2023/05/27 11:06:16;;;;;;;6.70;3.17;;;;;;;;;;10342694;28;20039;-81
2023/05/27 11:11:17;;;;;;;6.22;2.97;;;;;;;;;;10360757;28;20026;-81
2023/05/27 11:16:18;;;;;;;7.35;3.00;;;;;;;;;;10349550;28;20038;-81
2023/05/27 11:21:19;;;;;;;6.47;3.47;;;;;;;;;;10353271;28;20040;-78
2023/05/27 11:26:23;;;;;;;5.13;2.70;;;;;;;;;;10330765;28;20046;-79
2023/05/27 11:31:29;;;;;;;5.28;2.90;;;;;;;;;;10348533;28;20050;-80
2023/05/27 11:36:31;;;;;;;;;;;;;;;;;;10348457;28;20461;-83
2023/05/27 11:41:33;;;;;;;6.10;3.25;;;;;;;;;;10355632;28;20284;-79
2023/05/27 11:46:37;;;;;;;6.10;2.95;;;;;;;;;;10349149;28;20038;-81
2023/05/27 11:51:39;;;;;;;7.32;3.17;;;;;;;;;;10337420;28;20044;-80
2023/05/27 11:56:40;;;;;;;20.52;11.23;;;;;;;;;;10329798;28;20220;-81
2023/05/27 12:01:42;;;;;;;7.55;2.60;;;;;;;;;;10343818;28;20094;-81
2023/05/27 12:06:44;;;;;;;4.30;2.47;;;;;;;;;;10335813;28;20821;-81
2023/05/27 12:11:45;;;;;;;6.63;2.65;;;;;;;;;;10355754;28;20497;-79
2023/05/27 12:16:46;;;;;;;5.30;2.55;;;;;;;;;;10329451;28;20026;-82
2023/05/27 12:21:47;;;;;;;6.07;2.50;;;;;;;;;;10323330;28;20432;-84
2023/05/27 12:26:48;;;;;;;3.95;2.15;;;;;;;;;;10355575;28;20654;-82
2023/05/27 12:31:49;;;;;;;4.88;2.78;;;;;;;;;;10338705;28;20046;-85
2023/05/27 12:36:50;;;;;;;5.63;2.47;;;;;;;;;;10339144;28;20522;-83
2023/05/27 12:41:52;;;;;;;4.93;2.42;;;;;;;;;;10353148;28;20082;-83
2023/05/27 12:46:53;;;;;;;5.68;2.25;;;;;;;;;;10396031;28;20061;-85
2023/05/27 12:51:54;;;;;;;5.32;2.30;;;;;;;;;;10349394;28;20500;-86
2023/05/27 12:56:55;;;;;;;8.27;2.45;;;;;;;;;;10370776;28;20035;-81
2023/05/27 13:01:57;;;;;;;5.05;2.78;;;;;;;;;;10370933;28;20049;-83
2023/05/27 13:06:58;;;;;;;6.78;2.60;;;;;;;;;;10330870;28;20670;-86
2023/05/27 13:11:59;;;;;;;4.80;1.95;;;;;;;;;;10362458;28;20037;-81
2023/05/27 13:17:09;;;;;;;3.88;2.30;;;;;;;;;;10369080;28;20137;-80
2023/05/27 13:22:11;;;;;;;5.03;2.03;;;;;;;;;;10431525;28;20061;-80
2023/05/27 13:27:12;;;;;;;3.72;2.08;;;;;;;;;;10354159;28;20026;-81
2023/05/27 13:32:13;;;;;;;4.35;2.13;;;;;;;;;;10342017;28;20048;-81
2023/05/27 13:37:14;;;;;;;5.43;2.00;;;;;;;;;;10357520;28;20121;-82
2023/05/27 13:42:15;;;;;;;3.10;1.90;;;;;;;;;;10344466;28;20140;-81
2023/05/27 13:47:16;;;;;;;3.72;1.90;;;;;;;;;;10361286;28;20025;-80
2023/05/27 13:52:17;;;;;;;4.00;2.13;;;;;;;;;;10360717;28;20432;-81
2023/05/27 13:57:18;;;;;;;6.25;1.83;;;;;;;;;;10359868;28;20265;-82
2023/05/27 14:02:19;;;;;;;3.17;2.00;;;;;;;;;;10360005;28;20040;-80
2023/05/27 14:07:20;;;;;;;5.25;2.00;;;;;;;;;;10371433;28;20724;-83
2023/05/27 14:12:21;;;;;;;5.35;2.20;;;;;;;;;;10340522;28;20061;-80
2023/05/27 14:17:22;;;;;;;2.75;1.63;;;;;;;;;;10353680;28;20026;-79
2023/05/27 14:22:24;;;;;;;9.20;3.00;;;;;;;;;;10358460;28;20394;-79
2023/05/27 14:27:25;;;;;;;6.10;2.08;;;;;;;;;;10359245;28;20034;-80
2023/05/27 14:32:26;;;;;;;3.72;1.95;;;;;;;;;;10335472;28;20120;-80
2023/05/27 14:37:27;;;;;;;4.18;2.03;;;;;;;;;;10345943;28;20031;-79
2023/05/27 14:42:28;;;;;;;4.32;2.00;;;;;;;;;;10360193;28;20512;-82
2023/05/27 14:47:29;;;;;;;6.03;2.83;;;;;;;;;;10344076;28;20026;-82
2023/05/27 14:52:30;;;;;;;3.10;1.88;;;;;;;;;;10344245;28;20026;-79
2023/05/27 14:57:34;;;;;;;2.58;1.85;;;;;;;;;;10357547;28;20064;-80
2023/05/27 15:02:35;;;;;;;8.57;2.63;;;;;;;;;;10358935;28;20099;-82
2023/05/27 15:07:37;;;;;;;3.15;1.90;;;;;;;;;;10358777;28;20022;-80
2023/05/27 15:12:40;;;;;;;7.88;2.25;;;;;;;;;;10350776;28;20022;-79
2023/05/27 15:17:44;;;;;;;3.35;1.83;;;;;;;;;;10346624;28;20065;-80
2023/05/27 15:22:45;;;;;;;6.78;1.60;;;;;;;;;;10351776;28;20065;-80
2023/05/27 15:27:46;;;;;;;4.43;2.00;;;;;;;;;;10353080;28;20506;-81
2023/05/27 15:32:48;;;;;;;4.75;2.05;;;;;;;;;;10347535;28;20058;-80
2023/05/27 15:37:49;;;;;;;3.45;1.83;;;;;;;;;;10352170;28;20083;-82
2023/05/27 15:42:50;;;;;;;3.30;1.67;;;;;;;;;;10347370;28;20451;-80
2023/05/27 15:47:53;;;;;;;5.68;2.00;;;;;;;;;;10343213;28;20032;-79
2023/05/27 15:52:54;;;;;;;2.70;1.60;;;;;;;;;;10365394;28;20149;-79
2023/05/27 15:57:55;;;;;;;4.95;2.60;;;;;;;;;;10363653;28;20022;-81
2023/05/27 16:02:56;;;;;;;4.10;2.03;;;;;;;;;;10342737;28;20041;-81
2023/05/27 16:07:58;;;;;;;6.88;1.73;;;;;;;;;;10348141;28;20041;-79
2023/05/27 16:12:59;;;;;;;3.53;2.40;;;;;;;;;;10340857;28;20086;-80
2023/05/27 16:18:00;;;;;;;4.32;2.33;;;;;;;;;;10382337;28;20120;-80
2023/05/27 16:23:01;;;;;;;6.22;2.00;;;;;;;;;;10331133;28;20041;-80
2023/05/27 16:28:02;;;;;;;5.40;2.08;;;;;;;;;;10348171;28;20027;-80
2023/05/27 16:33:03;;;;;;;5.00;1.70;;;;;;;;;;10348568;28;20135;-81
2023/05/27 16:38:04;;;;;;;4.00;1.90;;;;;;;;;;10344538;28;20583;-80
2023/05/27 16:43:07;;;;;;;3.15;2.17;;;;;;;;;;10361729;28;20061;-81
2023/05/27 16:48:08;;;;;;;5.45;2.13;;;;;;;;;;10352457;28;20928;-81
2023/05/27 16:53:09;;;;;;;4.00;1.95;;;;;;;;;;10370066;28;20149;-80
2023/05/27 16:58:10;;;;;;;7.30;2.65;;;;;;;;;;10353013;28;20519;-80
2023/05/27 17:03:11;;;;;;;5.97;2.42;;;;;;;;;;10338181;28;20525;-83
2023/05/27 17:08:12;;;;;;;6.18;2.63;;;;;;;;;;10347054;28;20048;-80
2023/05/27 17:13:13;;;;;;;9.90;3.65;;;;;;;;;;10332264;28;20030;-80
2023/05/27 17:18:14;;;;;;;12.80;4.53;;;;;;;;;;10347694;28;20045;-80
2023/05/27 17:23:15;;;;;;;9.30;4.00;;;;;;;;;;10342096;28;20038;-82
2023/05/27 17:28:17;;;;;;;9.95;4.43;;;;;;;;;;10361648;28;20034;-81
2023/05/27 17:33:18;;;;;;;9.20;3.72;;;;;;;;;;10353404;28;20060;-80
2023/05/27 17:38:21;;;;;;;9.07;3.28;;;;;;;;;;10351309;28;20030;-80
2023/05/27 17:43:22;;;;;;;6.63;3.05;;;;;;;;;;10349044;28;20042;-82
2023/05/27 17:48:40;;;;;;;7.05;3.15;;;;;;;;;;10357069;28;20037;-80
2023/05/27 17:53:41;;;;;;;6.70;3.28;;;;;;;;;;10347637;28;20033;-81
2023/05/27 17:58:42;;;;;;;8.68;3.35;;;;;;;;;;10355816;28;20037;-81
2023/05/27 18:03:43;;;;;;;5.40;3.17;;;;;;;;;;10350844;28;20890;-80
2023/05/27 18:08:44;;;;;;;7.05;3.55;;;;;;;;;;10353048;28;20034;-81
2023/05/27 18:13:45;;;;;;;5.28;2.95;;;;;;;;;;10359692;28;20497;-80
2023/05/27 18:18:46;;;;;;;8.50;3.15;;;;;;;;;;10361609;28;20038;-80
2023/05/27 18:23:47;;;;;;;8.55;3.53;;;;;;;;;;10357977;28;20033;-81
2023/05/27 18:28:48;;;;;;;6.22;3.20;;;;;;;;;;10343705;28;20394;-81
2023/05/27 18:33:51;;;;;;;9.45;3.70;;;;;;;;;;10351126;28;20043;-79
2023/05/27 18:38:52;;;;;;;8.15;3.63;;;;;;;;;;10359286;28;20485;-79
2023/05/27 18:43:53;;;;;;;8.32;3.35;;;;;;;;;;10354917;28;20042;-78
2023/05/27 18:48:54;;;;;;;8.60;3.33;;;;;;;;;;10353142;28;20046;-79
2023/05/27 18:53:55;;;;;;;7.10;3.35;;;;;;;;;;10329557;28;20095;-79
2023/05/27 18:58:56;;;;;;;6.53;3.05;;;;;;;;;;10339703;28;20082;-79
2023/05/27 19:03:57;;;;;;;9.98;4.40;;;;;;;;;;10346812;28;20042;-79
2023/05/27 19:08:59;;;;;;;6.82;3.72;;;;;;;;;;10357232;28;20142;-79
2023/05/27 19:14:00;;;;;;;10.43;3.63;;;;;;;;;;10359935;28;20026;-81
2023/05/27 19:19:01;;;;;;;12.98;4.13;;;;;;;;;;10350430;28;20117;-79
2023/05/27 19:24:02;;;;;;;8.50;4.00;;;;;;;;;;10340397;28;20053;-80
2023/05/27 19:29:03;;;;;;;14.43;5.03;;;;;;;;;;10343288;28;20094;-82
2023/05/27 19:34:05;;;;;;;11.57;5.25;;;;;;;;;;10343376;28;20065;-81
2023/05/27 19:39:06;;;;;;;9.82;4.68;;;;;;;;;;10323014;28;20131;-83
2023/05/27 19:44:07;;;;;;;11.00;5.15;;;;;;;;;;10353639;28;20068;-82
2023/05/27 19:49:08;;;;;;;11.38;5.13;;;;;;;;;;10349824;28;20033;-80
2023/05/27 19:54:10;;;;;;;9.75;5.68;;;;;;;;;;10365140;28;20113;-83
2023/05/27 19:59:11;;;;;;;16.10;6.63;;;;;;;;;;10329656;28;20038;-81
2023/05/27 20:04:12;;;;;;;12.45;6.13;;;;;;;;;;10344724;28;20026;-80
2023/05/27 20:09:13;;;;;;;15.05;6.30;;;;;;;;;;10332757;28;20034;-80
2023/05/27 20:14:15;;;;;;;11.35;6.20;;;;;;;;;;10335727;28;20034;-81
2023/05/27 20:19:16;;;;;;;16.40;7.22;;;;;;;;;;10330560;28;20081;-82
2023/05/27 20:24:17;;;;;;;13.20;6.25;;;;;;;;;;10368049;28;20034;-82
2023/05/27 20:29:18;;;;;;;14.20;6.37;;;;;;;;;;10355927;28;20054;-80
2023/05/27 20:34:19;;;;;;;12.25;6.50;;;;;;;;;;10346485;28;20512;-81
2023/05/27 20:39:20;;;;;;;18.05;7.78;;;;;;;;;;10342710;28;20386;-80
2023/05/27 20:44:21;;;;;;;13.73;5.93;;;;;;;;;;10346310;28;20045;-81
2023/05/27 20:49:23;;;;;;;15.20;6.43;;;;;;;;;;10329295;28;20034;-80
2023/05/27 20:54:25;;;;;;;18.00;6.88;;;;;;;;;;10327527;28;20037;-82
2023/05/27 20:59:26;;;;;;;11.35;7.00;;;;;;;;;;10336483;28;20038;-79
2023/05/27 21:04:27;;;;;;;13.40;6.20;;;;;;;;;;10342673;28;20030;-81
2023/05/27 21:09:28;;;;;;;13.40;6.35;;;;;;;;;;10342800;28;20038;-81
2023/05/27 21:14:29;;;;;;;12.68;5.90;;;;;;;;;;10341615;28;20112;-80
2023/05/27 21:19:31;;;;;;;11.55;5.82;;;;;;;;;;10332154;28;20405;-81
2023/05/27 21:24:32;;;;;;;12.80;5.90;;;;;;;;;;10341040;28;20090;-85
2023/05/27 21:29:33;;;;;;;15.67;6.67;;;;;;;;;;10341934;28;20972;-82
2023/05/27 21:34:34;;;;;;;12.30;6.30;;;;;;;;;;10353569;28;20098;-82
2023/05/27 21:39:35;;;;;;;11.40;5.90;;;;;;;;;;10354093;28;20042;-80
2023/05/27 21:44:36;;;;;;;12.23;6.03;;;;;;;;;;10340018;28;20026;-82
2023/05/27 21:49:37;;;;;;;13.07;6.15;;;;;;;;;;10386869;28;20027;-82
2023/05/27 21:54:38;;;;;;;12.70;6.10;;;;;;;;;;10341180;28;20763;-81
2023/05/27 21:59:39;;;;;;;14.50;6.32;;;;;;;;;;10414922;28;20088;-81
2023/05/27 22:04:43;;;;;;;13.25;6.63;;;;;;;;;;10359555;28;20044;-80
2023/05/27 22:09:44;;;;;;;15.17;6.33;;;;;;;;;;10360878;28;20520;-80
2023/05/27 22:14:45;;;;;;;14.60;6.77;;;;;;;;;;10355214;28;20654;-83
2023/05/27 22:19:46;;;;;;;14.03;7.27;;;;;;;;;;10360718;28;20046;-82
2023/05/27 22:24:47;;;;;;;15.50;6.70;;;;;;;;;;10347803;28;20041;-81
2023/05/27 22:29:51;;;;;;;14.52;6.82;;;;;;;;;;10350840;28;20459;-81
2023/05/27 22:34:52;;;;;;;16.73;7.00;;;;;;;;;;10349456;28;20041;-80
2023/05/27 22:39:53;;;;;;;14.40;7.37;;;;;;;;;;10353701;28;20401;-81
2023/05/27 22:44:54;;;;;;;12.93;6.93;;;;;;;;;;10344773;28;20086;-81
2023/05/27 22:49:55;;;;;;;14.70;6.93;;;;;;;;;;10361302;28;20030;-83
2023/05/27 22:54:56;;;;;;;13.10;6.77;;;;;;;;;;10345166;28;20477;-83
2023/05/27 22:59:57;;;;;;;11.17;6.37;;;;;;;;;;10357821;28;20392;-81
2023/05/27 23:04:58;;;;;;;14.67;6.37;;;;;;;;;;10433367;28;20115;-84
2023/05/27 23:09:59;;;;;;;12.23;5.97;;;;;;;;;;10356362;28;20163;-83
2023/05/27 23:15:00;;;;;;;13.23;6.23;;;;;;;;;;10346024;28;20042;-81
2023/05/27 23:20:01;;;;;;;12.97;6.33;;;;;;;;;;10356992;28;20046;-83
2023/05/27 23:25:02;;;;;;;11.77;6.47;;;;;;;;;;10427283;28;20563;-80
2023/05/27 23:30:03;;;;;;;13.80;5.97;;;;;;;;;;10351354;28;20141;-83
2023/05/27 23:35:04;;;;;;;12.97;6.50;;;;;;;;;;10373994;28;20042;-81
2023/05/27 23:40:06;;;;;;;12.13;6.00;;;;;;;;;;10399050;28;20079;-80
2023/05/27 23:45:07;;;;;;;12.47;6.07;;;;;;;;;;10356330;28;20026;-80
2023/05/27 23:50:09;;;;;;;12.90;5.93;;;;;;;;;;10359190;28;20118;-79
2023/05/27 23:55:10;;;;;;;12.30;5.30;;;;;;;;;;10349938;28;20116;-80
